Earlington, PA

10:14 AM EDT on September 01, 2014 (GMT -0400)
Philadelphia Wings Airport | Change Station
CLOSE
Current Station
Airport
Location: Philadelphia Wings Airport,
Elevation: 302 ft
Nearby Weather Stations

Elev 302 ft 40.14 °N, 75.27 °W | Updated 19 minutes ago

Mostly Cloudy
Mostly Cloudy
79 °F
Feels Like 79 °F
N
0
Wind Variable Wind from North

Today
High -- | Low -- °F
--% Chance of Precip.
Yesterday
High -- | Low -- °F
Precip. -- in
6:28 AM 7:33 PM
Waxing Crescent, 41% visible
Pressure 30.03 in
Visibility 10.0 miles
Clouds Scattered Clouds 600 ft
Mostly Cloudy 5000 ft
Mostly Cloudy 7500 ft
Dew Point 73 °F
Humidity 83%
Rainfall 0.18 in
Snow Depth Not available.
UV 2 out of 12
Pollen 5.60 out of 12
Air Quality Not available.
Flu Activity Not available.
METAR KLOM 011355Z AUTO 00000KT 10SM SCT006 BKN050 BKN075 26/23 A3003 RMK AO1

More Conditions Fewer Conditions

Pressure 30.03 in
Visibility 10.0 miles
Clouds Scattered Clouds 600 ft
Mostly Cloudy 5000 ft
Mostly Cloudy 7500 ft
Dew Point 73 °F
Humidity 83%
Rainfall 0.18 in
Snow Depth Not available.
UV 2 out of 12
Pollen 5.60 out of 12
Air Quality Not available.
Flu Activity Not available.
METAR KLOM 011355Z AUTO 00000KT 10SM SCT006 BKN050 BKN075 26/23 A3003 RMK AO1

More Conditions Fewer Conditions

10-Day Weather Forecast

Almanac

Astronomy

Sep. 01, 2014 Rise Set
Actual Time 6:28 AM EDT 7:33 PM EDT
Civil Twilight 6:00 AM EDT 8:01 PM EDT
Nautical Twilight 5:27 AM EDT 8:34 PM EDT
Astronomical Twilight 4:52 AM EDT 9:09 PM EDT
Moon 1:13 PM EDT 11:31 PM EDT
Length of Visible Light 14h 00m
Length of Day
13h 04m
Tomorrow will be 2m 34s shorter.
Waxing Crescent, 41% of the Moon is Illuminated
Today
Waxing Crescent
Sep 2
First Quarter
Sep 8
Full
Sep 15
Last Quarter
Sep 24
New

Today's Extremes

State Highs State Lows

Community

WunderPhotos

Upload Photos

1,749,237 photos uploaded!

Nearby

Snow Depth

Station Depth Elevation
No new snow has been reported.

Earthquake Activity

City Distance Mag. Time & Date
No recent earthquake activity has been reported nearby.
Minimum magnitude displayed is 2.5.

Coastal Water Temperatures

Place Temperature
No Stations Reporting

Nearby Weather Stations